createdAt,value
2023-01-22T00:00:33.841Z,0.00
2023-01-22T00:01:33.782Z,0.00
2023-01-22T00:02:33.892Z,0.00
2023-01-22T00:03:33.788Z,0.00
2023-01-22T00:04:33.764Z,0.00
2023-01-22T00:05:33.703Z,0.00
2023-01-22T00:06:33.747Z,0.00
2023-01-22T00:07:33.692Z,0.00
2023-01-22T00:08:33.718Z,0.00
2023-01-22T00:09:33.706Z,0.00
2023-01-22T00:10:33.687Z,0.00
2023-01-22T00:11:33.637Z,0.00
2023-01-22T00:12:33.677Z,0.00
2023-01-22T00:13:33.622Z,0.00
2023-01-22T00:14:33.658Z,0.00
2023-01-22T00:15:33.625Z,0.00
2023-01-22T00:16:33.611Z,0.00
2023-01-22T00:17:33.570Z,0.00
2023-01-22T00:18:33.570Z,0.00
2023-01-22T00:19:33.557Z,0.00
2023-01-22T00:20:33.539Z,0.00
2023-01-22T00:21:33.507Z,0.00
2023-01-22T00:22:33.536Z,0.00
2023-01-22T00:23:33.505Z,0.00
2023-01-22T00:24:33.491Z,0.00
2023-01-22T00:25:33.448Z,0.00
2023-01-22T00:26:33.485Z,0.00
2023-01-22T00:27:33.432Z,0.00
2023-01-22T00:28:33.449Z,0.00
2023-01-22T00:29:33.446Z,0.00
2023-01-22T00:30:33.425Z,0.00
2023-01-22T00:31:33.478Z,0.00
2023-01-22T00:32:33.396Z,0.00
2023-01-22T00:33:33.358Z,0.00
2023-01-22T00:34:33.384Z,0.00
2023-01-22T00:35:33.337Z,0.00
2023-01-22T00:36:33.339Z,0.00
2023-01-22T00:37:33.325Z,0.00
2023-01-22T00:38:33.323Z,0.00
2023-01-22T00:39:33.285Z,0.00
2023-01-22T00:40:33.291Z,0.00
2023-01-22T00:41:33.248Z,0.00
2023-01-22T00:42:33.309Z,0.00
2023-01-22T00:43:33.220Z,0.00
2023-01-22T00:44:33.234Z,0.00
2023-01-22T00:45:33.210Z,0.00
2023-01-22T00:46:33.272Z,0.00
2023-01-22T00:47:33.192Z,0.00
2023-01-22T00:48:33.193Z,0.00
2023-01-22T00:49:33.165Z,0.00
2023-01-22T00:50:33.165Z,0.00
2023-01-22T00:51:33.140Z,0.00
2023-01-22T00:52:33.168Z,0.00
2023-01-22T00:53:33.129Z,0.00
2023-01-22T00:54:33.129Z,0.00
2023-01-22T00:55:33.096Z,0.00
2023-01-22T00:56:33.100Z,0.00
2023-01-22T00:57:33.044Z,0.00
2023-01-22T00:58:33.052Z,0.00
2023-01-22T00:59:33.010Z,0.00
2023-01-22T01:00:33.115Z,0.00
2023-01-22T01:01:33.009Z,0.00
2023-01-22T01:02:33.011Z,0.00
2023-01-22T01:03:32.969Z,0.00
2023-01-22T01:04:32.979Z,0.00
2023-01-22T01:05:32.940Z,0.00
2023-01-22T01:06:33.433Z,0.00
2023-01-22T01:07:32.933Z,0.00
2023-01-22T01:08:32.940Z,0.00
2023-01-22T01:09:32.884Z,0.00
2023-01-22T01:10:32.905Z,0.00
2023-01-22T01:11:32.891Z,0.00
2023-01-22T01:12:32.878Z,0.00
2023-01-22T01:13:32.846Z,0.00
2023-01-22T01:14:32.847Z,0.00
2023-01-22T01:15:32.808Z,0.00
2023-01-22T01:16:32.856Z,0.00
2023-01-22T01:17:32.783Z,0.00
2023-01-22T01:18:32.806Z,0.00
2023-01-22T01:19:32.759Z,0.00
2023-01-22T01:20:32.765Z,0.00
2023-01-22T01:21:32.751Z,0.00
2023-01-22T01:22:32.747Z,0.00
2023-01-22T01:23:32.725Z,0.00
2023-01-22T01:24:32.731Z,0.00
2023-01-22T01:25:32.684Z,0.00
2023-01-22T01:26:32.721Z,0.00
2023-01-22T01:27:32.670Z,0.00
2023-01-22T01:28:32.678Z,0.00
2023-01-22T01:29:32.639Z,0.00
2023-01-22T01:30:32.707Z,0.00
2023-01-22T01:31:32.676Z,0.00
2023-01-22T01:32:32.612Z,0.00
2023-01-22T01:33:32.581Z,0.00
2023-01-22T01:34:32.585Z,0.00
2023-01-22T01:35:32.557Z,0.00
2023-01-22T01:36:48.190Z,0.00
2023-01-22T01:37:32.534Z,0.00
2023-01-22T01:38:32.549Z,0.00
2023-01-22T01:39:32.513Z,0.00
2023-01-22T01:40:32.508Z,0.00
2023-01-22T01:41:32.508Z,0.00
2023-01-22T01:42:32.483Z,0.00
2023-01-22T01:43:32.451Z,0.00
2023-01-22T01:44:32.459Z,0.00
2023-01-22T01:45:32.433Z,0.00
2023-01-22T01:46:32.502Z,0.00
2023-01-22T01:47:32.415Z,0.00
2023-01-22T01:48:32.410Z,0.00
2023-01-22T01:49:32.395Z,0.00
2023-01-22T01:50:32.386Z,0.00
2023-01-22T01:51:32.352Z,0.00
2023-01-22T01:52:32.363Z,0.00
2023-01-22T01:53:32.326Z,0.00
2023-01-22T01:54:32.354Z,0.00
2023-01-22T01:55:32.294Z,0.00
2023-01-22T01:56:32.324Z,0.00
2023-01-22T01:57:32.297Z,0.00
2023-01-22T01:58:32.289Z,0.00
2023-01-22T01:59:32.235Z,0.00
2023-01-22T02:00:32.257Z,0.00
2023-01-22T02:01:32.236Z,0.00
2023-01-22T02:02:32.247Z,0.00
2023-01-22T02:03:32.199Z,0.00
2023-01-22T02:04:32.214Z,0.00
2023-01-22T02:05:32.186Z,0.00
2023-01-22T02:06:32.189Z,0.00
2023-01-22T02:07:32.168Z,0.00
2023-01-22T02:08:32.146Z,0.00
2023-01-22T02:09:32.146Z,0.00
2023-01-22T02:10:32.148Z,0.00
2023-01-22T02:11:32.096Z,0.00
2023-01-22T02:12:32.105Z,0.00
2023-01-22T02:13:32.065Z,0.00
2023-01-22T02:14:32.093Z,0.00
2023-01-22T02:15:32.037Z,0.00
2023-01-22T02:16:32.110Z,0.00
2023-01-22T02:17:32.025Z,0.00
2023-01-22T02:18:32.030Z,0.00
2023-01-22T02:19:31.998Z,0.00
2023-01-22T02:20:31.991Z,0.00
2023-01-22T02:21:31.969Z,0.00
2023-01-22T02:22:31.973Z,0.00
2023-01-22T02:23:31.943Z,0.00
2023-01-22T02:24:31.977Z,0.00
2023-01-22T02:25:31.902Z,0.00
2023-01-22T02:26:31.915Z,0.00
2023-01-22T02:27:31.911Z,0.00
2023-01-22T02:28:31.894Z,0.00
2023-01-22T02:29:31.846Z,0.00
2023-01-22T02:30:31.957Z,0.00
2023-01-22T02:31:31.868Z,0.00
2023-01-22T02:32:31.840Z,0.00
2023-01-22T02:33:31.806Z,0.00
2023-01-22T02:34:31.838Z,0.00
2023-01-22T02:35:31.780Z,0.00
2023-01-22T02:36:31.793Z,0.00
2023-01-22T02:37:31.766Z,0.00
2023-01-22T02:38:31.779Z,0.00
2023-01-22T02:39:31.770Z,0.00
2023-01-22T02:40:31.737Z,0.00
2023-01-22T02:41:31.726Z,0.00
2023-01-22T02:42:31.688Z,0.00
2023-01-22T02:43:31.733Z,0.00
2023-01-22T02:44:31.667Z,0.00
2023-01-22T02:45:31.816Z,0.00
2023-01-22T02:46:31.644Z,0.00
2023-01-22T02:47:31.655Z,0.00
2023-01-22T02:48:31.636Z,0.00
2023-01-22T02:49:31.609Z,0.00
2023-01-22T02:50:31.574Z,0.00
2023-01-22T02:51:31.612Z,0.00
2023-01-22T02:52:31.597Z,0.00
2023-01-22T02:53:31.575Z,0.00
2023-01-22T02:54:31.544Z,0.00
2023-01-22T02:55:31.538Z,0.00
2023-01-22T02:56:31.510Z,0.00
2023-01-22T02:57:31.523Z,0.00
2023-01-22T02:58:31.513Z,0.00
2023-01-22T02:59:31.496Z,0.00
2023-01-22T03:00:31.466Z,0.00
2023-01-22T03:01:31.463Z,0.00
2023-01-22T03:02:31.471Z,0.00
2023-01-22T03:03:31.465Z,0.00
2023-01-22T03:04:31.413Z,0.00
2023-01-22T03:05:31.430Z,0.00
2023-01-22T03:06:31.383Z,0.00
2023-01-22T03:07:31.396Z,0.00
2023-01-22T03:08:31.386Z,0.00
2023-01-22T03:09:31.399Z,0.00
2023-01-22T03:10:31.324Z,0.00
2023-01-22T03:11:31.334Z,0.00
2023-01-22T03:12:31.293Z,0.00
2023-01-22T03:13:31.323Z,0.00
2023-01-22T03:14:31.293Z,0.00
2023-01-22T03:15:31.291Z,0.00
2023-01-22T03:16:31.346Z,0.00
2023-01-22T03:17:31.261Z,0.00
2023-01-22T03:18:31.229Z,0.00
2023-01-22T03:19:31.274Z,0.00
2023-01-22T03:20:31.198Z,0.00
2023-01-22T03:21:31.203Z,0.00
2023-01-22T03:22:31.167Z,0.00
2023-01-22T03:23:31.180Z,0.00
2023-01-22T03:24:31.177Z,0.00
2023-01-22T03:25:31.159Z,0.00
2023-01-22T03:26:31.148Z,0.00
2023-01-22T03:27:31.142Z,0.00
2023-01-22T03:28:31.095Z,0.00
2023-01-22T03:29:31.114Z,0.00
2023-01-22T03:30:31.116Z,0.00
2023-01-22T03:31:31.201Z,0.00
2023-01-22T03:32:31.046Z,0.00
2023-01-22T03:33:31.057Z,0.00
2023-01-22T03:34:31.015Z,0.00
2023-01-22T03:35:31.063Z,0.00
2023-01-22T03:36:31.017Z,0.00
2023-01-22T03:37:31.034Z,0.00
2023-01-22T03:38:30.965Z,0.00
2023-01-22T03:39:30.976Z,0.00
2023-01-22T03:40:30.963Z,0.00
2023-01-22T03:41:30.948Z,0.00
2023-01-22T03:42:30.913Z,0.00
2023-01-22T03:43:30.918Z,0.00
2023-01-22T03:44:30.899Z,0.00
2023-01-22T03:45:30.918Z,0.00
2023-01-22T03:46:30.870Z,0.00
2023-01-22T03:47:30.881Z,0.00
2023-01-22T03:48:30.845Z,0.00
2023-01-22T03:49:30.888Z,0.00
2023-01-22T03:50:30.818Z,0.00
2023-01-22T03:51:30.821Z,0.00
2023-01-22T03:52:30.791Z,0.00
2023-01-22T03:53:30.826Z,0.00
2023-01-22T03:54:30.760Z,0.00
2023-01-22T03:55:30.775Z,0.00
2023-01-22T03:56:30.741Z,0.00
2023-01-22T03:57:30.736Z,0.00
2023-01-22T03:58:30.735Z,0.00
2023-01-22T03:59:30.746Z,0.00
2023-01-22T04:00:30.704Z,0.00
2023-01-22T04:01:30.782Z,0.00
2023-01-22T04:02:30.798Z,0.00
2023-01-22T04:03:30.689Z,0.00
2023-01-22T04:04:30.635Z,0.00
2023-01-22T04:05:30.665Z,0.00
2023-01-22T04:06:30.599Z,0.00
2023-01-22T04:07:30.621Z,0.00
2023-01-22T04:08:30.590Z,0.00
2023-01-22T04:09:30.645Z,0.00
2023-01-22T04:10:30.546Z,0.00
2023-01-22T04:11:30.561Z,0.00
2023-01-22T04:12:30.528Z,0.00
2023-01-22T04:13:30.552Z,0.00
2023-01-22T04:14:30.540Z,0.00
2023-01-22T04:15:30.532Z,0.00
2023-01-22T04:16:30.531Z,0.00
2023-01-22T04:17:30.504Z,0.00
2023-01-22T04:18:30.447Z,0.00
2023-01-22T04:19:30.469Z,0.00
2023-01-22T04:20:30.441Z,0.00
2023-01-22T04:21:30.445Z,0.00
2023-01-22T04:22:30.394Z,0.00
2023-01-22T04:23:30.417Z,0.00
2023-01-22T04:24:30.384Z,0.00
2023-01-22T04:25:30.407Z,0.00
2023-01-22T04:26:30.344Z,0.00
2023-01-22T04:27:30.367Z,0.00
2023-01-22T04:28:30.323Z,0.00
2023-01-22T04:29:30.332Z,0.00
2023-01-22T04:30:30.406Z,0.00
2023-01-22T04:31:30.393Z,0.00
2023-01-22T04:32:30.304Z,0.00
2023-01-22T04:33:30.287Z,0.00
2023-01-22T04:34:30.283Z,0.00
2023-01-22T04:35:30.276Z,0.00
2023-01-22T04:36:30.222Z,0.00
2023-01-22T04:37:30.230Z,0.00
2023-01-22T04:38:30.216Z,0.00
2023-01-22T04:39:30.197Z,0.00
2023-01-22T04:40:30.191Z,0.00
2023-01-22T04:41:30.217Z,0.00
2023-01-22T04:42:30.141Z,0.00
2023-01-22T04:43:30.154Z,0.00
2023-01-22T04:44:30.132Z,0.00
2023-01-22T04:45:30.128Z,0.00
2023-01-22T04:46:30.196Z,0.00
2023-01-22T04:47:30.106Z,0.00
2023-01-22T04:48:30.103Z,0.00
2023-01-22T04:49:30.075Z,0.00
2023-01-22T04:50:30.065Z,0.00
2023-01-22T04:51:30.050Z,0.00
2023-01-22T04:52:30.002Z,0.00
2023-01-22T04:53:30.067Z,0.00
2023-01-22T04:54:29.980Z,0.00
2023-01-22T04:55:29.994Z,0.00
2023-01-22T04:56:29.976Z,0.00
2023-01-22T04:57:30.005Z,0.00
2023-01-22T04:58:29.931Z,0.00
2023-01-22T04:59:29.958Z,0.00
2023-01-22T05:00:29.911Z,0.00
2023-01-22T05:01:30.004Z,0.00
2023-01-22T05:02:29.907Z,0.00
2023-01-22T05:03:29.889Z,0.00
2023-01-22T05:04:29.856Z,0.00
2023-01-22T05:05:29.897Z,0.00
2023-01-22T05:06:29.858Z,0.00
2023-01-22T05:07:29.835Z,0.00
2023-01-22T05:08:29.826Z,0.00
2023-01-22T05:09:29.853Z,0.00
2023-01-22T05:10:29.784Z,0.00
2023-01-22T05:11:29.801Z,0.00
2023-01-22T05:12:29.749Z,0.00
2023-01-22T05:13:29.764Z,0.00
2023-01-22T05:14:29.755Z,0.00
2023-01-22T05:15:29.840Z,0.00
2023-01-22T05:16:29.699Z,0.00
2023-01-22T05:17:29.708Z,0.00
2023-01-22T05:18:29.665Z,0.00
2023-01-22T05:19:29.684Z,0.00
2023-01-22T05:20:29.674Z,0.00
2023-01-22T05:21:29.673Z,0.00
2023-01-22T05:22:29.649Z,0.00
2023-01-22T05:23:29.639Z,0.00
2023-01-22T05:24:29.593Z,0.00
2023-01-22T05:25:29.639Z,0.00
2023-01-22T05:26:29.575Z,0.00
2023-01-22T05:27:29.584Z,0.00
2023-01-22T05:28:29.542Z,0.00
2023-01-22T05:29:29.560Z,0.00
2023-01-22T05:30:29.552Z,0.00
2023-01-22T05:31:29.654Z,0.00
2023-01-22T05:32:29.502Z,0.00
2023-01-22T05:33:29.499Z,0.00
2023-01-22T05:34:29.487Z,0.00
2023-01-22T05:35:29.499Z,0.00
2023-01-22T05:36:29.443Z,0.00
2023-01-22T05:37:29.487Z,0.00
2023-01-22T05:38:29.450Z,0.00
2023-01-22T05:39:29.432Z,0.00
2023-01-22T05:40:29.385Z,0.00
2023-01-22T05:41:29.446Z,0.00
2023-01-22T05:42:29.367Z,0.00
2023-01-22T05:43:29.395Z,0.00
2023-01-22T05:44:29.339Z,0.00
2023-01-22T05:45:29.345Z,0.00
2023-01-22T05:46:29.411Z,0.00
2023-01-22T05:47:29.328Z,0.00
2023-01-22T05:48:29.305Z,0.00
2023-01-22T05:49:29.305Z,0.00
2023-01-22T05:50:29.287Z,0.00
2023-01-22T05:51:31.394Z,0.00
2023-01-22T05:52:29.263Z,0.00
2023-01-22T05:53:29.281Z,0.00
2023-01-22T05:54:29.219Z,0.00
2023-01-22T05:55:29.258Z,0.00
2023-01-22T05:56:29.204Z,0.00
2023-01-22T05:57:29.196Z,0.00
2023-01-22T05:58:29.184Z,0.00
2023-01-22T05:59:29.176Z,0.00
2023-01-22T06:00:29.155Z,0.00
2023-01-22T06:01:29.158Z,0.00
2023-01-22T06:02:29.129Z,0.00
2023-01-22T06:03:29.150Z,0.00
2023-01-22T06:04:29.083Z,0.00
2023-01-22T06:05:29.156Z,0.00
2023-01-22T06:06:29.060Z,0.00
2023-01-22T06:07:29.071Z,0.00
2023-01-22T06:08:29.069Z,0.00
2023-01-22T06:09:29.043Z,0.00
2023-01-22T06:10:29.044Z,0.00
2023-01-22T06:11:29.018Z,0.00
2023-01-22T06:12:28.982Z,0.00
2023-01-22T06:13:28.993Z,0.00
2023-01-22T06:14:28.963Z,0.00
2023-01-22T06:15:28.964Z,0.00
2023-01-22T06:16:28.934Z,0.00
2023-01-22T06:17:28.935Z,0.00
2023-01-22T06:18:28.890Z,0.00
2023-01-22T06:19:28.947Z,0.00
2023-01-22T06:20:28.879Z,0.00
2023-01-22T06:21:28.888Z,0.00
2023-01-22T06:22:28.845Z,0.00
2023-01-22T06:23:28.913Z,0.00
2023-01-22T06:24:28.867Z,0.00
2023-01-22T06:25:28.826Z,0.00
2023-01-22T06:26:28.801Z,0.00
2023-01-22T06:27:28.852Z,0.00
2023-01-22T06:28:28.792Z,0.00
2023-01-22T06:29:28.781Z,0.00
2023-01-22T06:30:28.793Z,0.00
2023-01-22T06:31:28.952Z,0.00
2023-01-22T06:32:28.752Z,0.00
2023-01-22T06:33:28.814Z,0.00
2023-01-22T06:34:28.710Z,0.00
2023-01-22T06:35:28.714Z,0.00
2023-01-22T06:36:28.672Z,0.00
2023-01-22T06:37:28.686Z,0.00
2023-01-22T06:38:28.800Z,0.00
2023-01-22T06:39:28.650Z,0.00
2023-01-22T06:40:28.628Z,0.00
2023-01-22T06:41:28.645Z,0.00
2023-01-22T06:42:28.605Z,0.00
2023-01-22T06:43:28.599Z,0.00
2023-01-22T06:44:28.574Z,0.00
2023-01-22T06:45:28.593Z,0.00
2023-01-22T06:46:28.609Z,0.00
2023-01-22T06:47:28.570Z,0.00
2023-01-22T06:48:28.537Z,0.00
2023-01-22T06:49:28.530Z,0.00
2023-01-22T06:50:28.488Z,0.00
2023-01-22T06:51:28.584Z,0.00
2023-01-22T06:52:28.504Z,0.00
2023-01-22T06:53:28.470Z,0.00
2023-01-22T06:54:28.439Z,0.00
2023-01-22T06:55:28.447Z,0.00
2023-01-22T06:56:28.413Z,0.00
2023-01-22T06:57:28.423Z,0.00
2023-01-22T06:58:28.426Z,0.00
2023-01-22T06:59:28.381Z,0.00
2023-01-22T07:00:28.414Z,0.00
2023-01-22T07:01:28.423Z,0.00
2023-01-22T07:02:28.383Z,0.00
2023-01-22T07:03:28.376Z,0.00
2023-01-22T07:04:28.330Z,0.00
2023-01-22T07:05:28.375Z,0.00
2023-01-22T07:06:28.307Z,0.00
2023-01-22T07:07:28.291Z,0.00
2023-01-22T07:08:28.302Z,0.00
2023-01-22T07:09:28.261Z,0.00
2023-01-22T07:10:29.287Z,4.00
2023-01-22T07:11:28.228Z,4.00
2023-01-22T07:12:28.247Z,4.00
2023-01-22T07:13:28.233Z,4.00
2023-01-22T07:14:36.550Z,4.00
2023-01-22T07:15:28.176Z,4.00
2023-01-22T07:16:28.256Z,0.00
2023-01-22T07:17:28.137Z,0.00
2023-01-22T07:18:28.159Z,0.00
2023-01-22T07:19:28.135Z,0.00
2023-01-22T07:20:28.147Z,4.00
2023-01-22T07:21:28.105Z,4.00
2023-01-22T07:22:28.099Z,4.00
2023-01-22T07:23:28.101Z,4.00
2023-01-22T07:24:28.078Z,0.00
2023-01-22T07:25:28.068Z,4.00
2023-01-22T07:26:28.058Z,4.00
2023-01-22T07:27:28.010Z,4.00
2023-01-22T07:28:28.048Z,4.00
2023-01-22T07:29:27.989Z,4.00
2023-01-22T07:30:28.011Z,4.00
2023-01-22T07:31:27.986Z,4.00
2023-01-22T07:32:27.990Z,4.00
2023-01-22T07:33:27.952Z,4.00
2023-01-22T07:34:27.950Z,4.00
2023-01-22T07:35:27.916Z,4.00
2023-01-22T07:36:27.924Z,4.00
2023-01-22T07:37:27.913Z,4.00
2023-01-22T07:38:27.915Z,8.00
2023-01-22T07:39:27.867Z,4.00
2023-01-22T07:40:27.946Z,4.00
2023-01-22T07:41:27.828Z,4.00
2023-01-22T07:42:27.854Z,4.00
2023-01-22T07:43:27.836Z,4.00
2023-01-22T07:44:27.811Z,4.00
2023-01-22T07:45:27.787Z,4.00
2023-01-22T07:46:27.842Z,4.00
2023-01-22T07:47:27.748Z,8.00
2023-01-22T07:48:27.774Z,4.00
2023-01-22T07:49:27.763Z,4.00
2023-01-22T07:50:27.755Z,8.00
2023-01-22T07:51:27.700Z,4.00
2023-01-22T07:52:27.815Z,4.00
2023-01-22T07:53:27.719Z,8.00
2023-01-22T07:54:27.702Z,8.00
2023-01-22T07:55:27.664Z,8.00
2023-01-22T07:56:27.681Z,8.00
2023-01-22T07:57:27.613Z,8.00
2023-01-22T07:58:27.636Z,12.00
2023-01-22T07:59:27.609Z,12.00
2023-01-22T08:00:27.682Z,12.00
2023-01-22T08:01:27.604Z,12.00
2023-01-22T08:02:27.593Z,16.00
2023-01-22T08:03:27.544Z,16.00
2023-01-22T08:04:27.583Z,16.00
2023-01-22T08:05:27.543Z,20.00
2023-01-22T08:06:27.534Z,20.00
2023-01-22T08:07:27.903Z,20.00
2023-01-22T08:08:27.572Z,20.00
2023-01-22T08:09:27.489Z,24.00
2023-01-22T08:10:27.519Z,24.00
2023-01-22T08:11:27.448Z,28.00
2023-01-22T08:12:27.459Z,32.00
2023-01-22T08:13:27.430Z,40.00
2023-01-22T08:14:27.448Z,44.00
2023-01-22T08:15:27.464Z,44.00
2023-01-22T08:16:27.538Z,52.00
2023-01-22T08:17:27.381Z,56.00
2023-01-22T08:18:27.416Z,60.00
2023-01-22T08:19:27.386Z,60.00
2023-01-22T08:20:27.382Z,60.00
2023-01-22T08:21:27.328Z,60.00
2023-01-22T08:22:27.330Z,60.00
2023-01-22T08:23:27.331Z,60.00
2023-01-22T08:24:27.325Z,60.00
2023-01-22T08:25:27.270Z,60.00
2023-01-22T08:26:27.264Z,60.00
2023-01-22T08:27:27.275Z,60.00
2023-01-22T08:28:27.273Z,56.00
2023-01-22T08:29:27.268Z,56.00
2023-01-22T08:30:27.281Z,56.00
2023-01-22T08:31:28.718Z,52.00
2023-01-22T08:32:27.289Z,52.00
2023-01-22T08:33:27.216Z,52.00
2023-01-22T08:34:27.205Z,52.00
2023-01-22T08:35:27.229Z,48.00
2023-01-22T08:36:27.185Z,52.00
2023-01-22T08:37:27.120Z,52.00
2023-01-22T08:38:27.117Z,48.00
2023-01-22T08:39:27.137Z,48.00
2023-01-22T08:40:27.074Z,52.00
2023-01-22T08:41:27.083Z,52.00
2023-01-22T08:42:27.040Z,52.00
2023-01-22T08:43:27.080Z,56.00
2023-01-22T08:44:27.023Z,56.00
2023-01-22T08:45:27.157Z,56.00
2023-01-22T08:46:27.020Z,60.00
2023-01-22T08:47:26.987Z,64.00
2023-01-22T08:48:26.994Z,64.00
2023-01-22T08:49:26.974Z,64.00
2023-01-22T08:50:26.945Z,64.00
2023-01-22T08:51:27.020Z,64.00
2023-01-22T08:52:26.929Z,64.00
2023-01-22T08:53:26.974Z,64.00
2023-01-22T08:54:26.931Z,68.00
2023-01-22T08:55:26.927Z,72.00
2023-01-22T08:56:26.871Z,68.00
2023-01-22T08:57:26.878Z,68.00
2023-01-22T08:58:26.832Z,68.00
2023-01-22T08:59:28.024Z,68.00
2023-01-22T09:00:26.837Z,68.00
2023-01-22T09:01:26.945Z,64.00
2023-01-22T09:02:26.881Z,64.00
2023-01-22T09:03:26.820Z,64.00
2023-01-22T09:04:26.792Z,64.00
2023-01-22T09:05:26.808Z,68.00
2023-01-22T09:06:26.757Z,68.00
2023-01-22T09:07:26.760Z,68.00
2023-01-22T09:08:26.713Z,64.00
2023-01-22T09:09:26.725Z,64.00
2023-01-22T09:10:26.755Z,60.00
2023-01-22T09:11:26.728Z,56.00
2023-01-22T09:12:26.656Z,56.00
2023-01-22T09:13:26.667Z,56.00
2023-01-22T09:14:26.623Z,56.00
2023-01-22T09:15:26.662Z,56.00
2023-01-22T09:16:26.700Z,56.00
2023-01-22T09:17:26.621Z,56.00
2023-01-22T09:18:26.587Z,52.00
2023-01-22T09:19:26.598Z,52.00
2023-01-22T09:20:26.583Z,52.00
2023-01-22T09:21:26.596Z,52.00
2023-01-22T09:22:26.538Z,56.00
2023-01-22T09:23:26.547Z,56.00
2023-01-22T09:24:26.494Z,60.00
2023-01-22T09:25:26.545Z,56.00
2023-01-22T09:26:26.479Z,56.00
2023-01-22T09:27:26.519Z,56.00
2023-01-22T09:28:26.465Z,56.00
2023-01-22T09:29:26.465Z,56.00
2023-01-22T09:30:26.453Z,52.00
2023-01-22T09:31:26.487Z,52.00
2023-01-22T09:32:26.422Z,48.00
2023-01-22T09:33:26.421Z,48.00
2023-01-22T09:34:26.374Z,48.00
2023-01-22T09:35:26.392Z,48.00
2023-01-22T09:36:26.350Z,48.00
2023-01-22T09:37:26.374Z,48.00
2023-01-22T09:38:26.352Z,52.00
2023-01-22T09:39:26.327Z,52.00
2023-01-22T09:40:26.341Z,52.00
2023-01-22T09:41:26.352Z,56.00
2023-01-22T09:42:26.289Z,56.00
2023-01-22T09:43:26.296Z,56.00
2023-01-22T09:44:26.238Z,56.00
2023-01-22T09:45:26.265Z,52.00
2023-01-22T09:46:26.227Z,52.00
2023-01-22T09:47:26.234Z,48.00
2023-01-22T09:48:26.203Z,56.00
2023-01-22T09:49:26.256Z,52.00
2023-01-22T09:50:26.172Z,56.00
2023-01-22T09:51:26.274Z,56.00
2023-01-22T09:52:26.134Z,56.00
2023-01-22T09:53:26.177Z,56.00
2023-01-22T09:54:26.128Z,56.00
2023-01-22T09:55:26.145Z,56.00
2023-01-22T09:56:26.096Z,56.00
2023-01-22T09:57:31.516Z,56.00
2023-01-22T09:58:26.110Z,60.00
2023-01-22T09:59:26.073Z,60.00
2023-01-22T10:00:26.045Z,60.00
2023-01-22T10:01:26.111Z,64.00
2023-01-22T10:02:26.066Z,68.00
2023-01-22T10:03:26.035Z,64.00
2023-01-22T10:04:25.983Z,68.00
2023-01-22T10:05:26.007Z,68.00
2023-01-22T10:06:25.992Z,68.00
2023-01-22T10:07:25.974Z,60.00
2023-01-22T10:08:25.921Z,60.00
2023-01-22T10:09:25.961Z,60.00
2023-01-22T10:10:25.900Z,64.00
2023-01-22T10:11:25.950Z,64.00
2023-01-22T10:12:25.888Z,60.00
2023-01-22T10:13:25.893Z,64.00
2023-01-22T10:14:25.880Z,60.00
2023-01-22T10:15:25.883Z,60.00
2023-01-22T10:16:25.893Z,60.00
2023-01-22T10:17:25.866Z,60.00
2023-01-22T10:18:25.835Z,60.00
2023-01-22T10:19:25.821Z,60.00
2023-01-22T10:20:25.774Z,60.00
2023-01-22T10:21:25.818Z,64.00
2023-01-22T10:22:25.774Z,64.00
2023-01-22T10:23:25.784Z,64.00
2023-01-22T10:24:25.756Z,72.00
2023-01-22T10:25:25.749Z,68.00
2023-01-22T10:26:25.709Z,64.00
2023-01-22T10:27:25.726Z,64.00
2023-01-22T10:28:25.685Z,64.00
2023-01-22T10:29:25.713Z,60.00
2023-01-22T10:30:25.648Z,60.00
2023-01-22T10:31:25.925Z,64.00
2023-01-22T10:32:25.623Z,60.00
2023-01-22T10:33:25.631Z,60.00
2023-01-22T10:34:25.613Z,60.00
2023-01-22T10:35:25.622Z,64.00
2023-01-22T10:36:25.583Z,60.00
2023-01-22T10:37:25.582Z,60.00
2023-01-22T10:38:25.573Z,64.00
2023-01-22T10:39:25.563Z,60.00
2023-01-22T10:40:25.569Z,60.00
2023-01-22T10:41:25.518Z,64.00
2023-01-22T10:42:25.503Z,64.00
2023-01-22T10:43:25.504Z,72.00
2023-01-22T10:44:25.464Z,64.00
2023-01-22T10:45:25.481Z,60.00
2023-01-22T10:46:25.499Z,64.00
2023-01-22T10:47:25.456Z,72.00
2023-01-22T10:48:25.425Z,68.00
2023-01-22T10:49:25.426Z,76.00
2023-01-22T10:50:25.403Z,76.00
2023-01-22T10:51:25.466Z,76.00
2023-01-22T10:52:25.384Z,76.00
2023-01-22T10:53:25.407Z,76.00
2023-01-22T10:54:25.335Z,72.00
2023-01-22T10:55:25.383Z,76.00
2023-01-22T10:56:25.313Z,76.00
2023-01-22T10:57:25.355Z,76.00
2023-01-22T10:58:25.279Z,80.00
2023-01-22T10:59:25.299Z,80.00
2023-01-22T11:00:25.262Z,84.00
2023-01-22T11:01:25.290Z,80.00
2023-01-22T11:02:25.310Z,88.00
2023-01-22T11:03:25.250Z,88.00
2023-01-22T11:04:25.204Z,80.00
2023-01-22T11:05:25.230Z,80.00
2023-01-22T11:06:25.185Z,84.00
2023-01-22T11:07:25.207Z,80.00
2023-01-22T11:08:25.180Z,84.00
2023-01-22T11:09:25.176Z,84.00
2023-01-22T11:10:25.130Z,84.00
2023-01-22T11:11:25.154Z,88.00
2023-01-22T11:12:25.128Z,92.00
2023-01-22T11:13:25.131Z,92.00
2023-01-22T11:14:25.112Z,96.00
2023-01-22T11:15:25.064Z,100.00
2023-01-22T11:16:25.105Z,112.00
2023-01-22T11:17:25.071Z,108.00
2023-01-22T11:18:25.064Z,104.00
2023-01-22T11:19:36.315Z,100.00
2023-01-22T11:20:25.035Z,104.00
2023-01-22T11:21:25.040Z,100.00
2023-01-22T11:22:24.991Z,104.00
2023-01-22T11:23:24.976Z,104.00
2023-01-22T11:24:24.975Z,104.00
2023-01-22T11:25:24.992Z,100.00
2023-01-22T11:26:24.952Z,108.00
2023-01-22T11:27:24.924Z,108.00
2023-01-22T11:28:25.001Z,104.00
2023-01-22T11:29:24.902Z,104.00
2023-01-22T11:30:25.327Z,100.00
2023-01-22T11:31:25.037Z,100.00
2023-01-22T11:32:24.881Z,104.00
2023-01-22T11:33:24.859Z,104.00
2023-01-22T11:34:24.854Z,100.00
2023-01-22T11:35:24.841Z,104.00
2023-01-22T11:36:24.819Z,108.00
2023-01-22T11:37:24.782Z,116.00
2023-01-22T11:38:24.823Z,116.00
2023-01-22T11:39:24.784Z,112.00
2023-01-22T11:40:24.775Z,112.00
2023-01-22T11:41:24.726Z,116.00
2023-01-22T11:42:24.755Z,108.00
2023-01-22T11:43:24.735Z,104.00
2023-01-22T11:44:24.715Z,120.00
2023-01-22T11:45:24.700Z,120.00
2023-01-22T11:46:24.796Z,108.00
2023-01-22T11:47:24.684Z,100.00
2023-01-22T11:48:24.699Z,108.00
2023-01-22T11:49:24.626Z,112.00
2023-01-22T11:50:24.659Z,120.00
2023-01-22T11:51:24.652Z,116.00
2023-01-22T11:52:24.614Z,108.00
2023-01-22T11:53:24.613Z,104.00
2023-01-22T11:54:24.587Z,100.00
2023-01-22T11:55:24.583Z,112.00
2023-01-22T11:56:24.603Z,108.00
2023-01-22T11:57:24.533Z,112.00
2023-01-22T11:58:24.552Z,116.00
2023-01-22T11:59:24.508Z,116.00
2023-01-22T12:00:24.509Z,108.00
2023-01-22T12:01:24.473Z,112.00
2023-01-22T12:02:24.604Z,116.00
2023-01-22T12:03:24.541Z,112.00
2023-01-22T12:04:24.465Z,112.00
2023-01-22T12:05:24.424Z,120.00
2023-01-22T12:06:24.431Z,120.00
2023-01-22T12:07:24.435Z,116.00
2023-01-22T12:08:24.426Z,108.00
2023-01-22T12:09:24.387Z,100.00
2023-01-22T12:10:24.379Z,92.00
2023-01-22T12:11:24.349Z,88.00
2023-01-22T12:12:24.375Z,96.00
2023-01-22T12:13:24.323Z,100.00
2023-01-22T12:14:24.330Z,100.00
2023-01-22T12:15:24.298Z,88.00
2023-01-22T12:16:24.452Z,88.00
2023-01-22T12:17:24.281Z,76.00
2023-01-22T12:18:24.272Z,72.00
2023-01-22T12:19:24.245Z,72.00
2023-01-22T12:20:24.251Z,72.00
2023-01-22T12:21:24.226Z,72.00
2023-01-22T12:22:24.236Z,68.00
2023-01-22T12:23:24.207Z,60.00
2023-01-22T12:24:24.210Z,60.00
2023-01-22T12:25:24.154Z,60.00
2023-01-22T12:26:24.185Z,60.00
2023-01-22T12:27:24.146Z,64.00
2023-01-22T12:28:24.207Z,72.00
2023-01-22T12:29:24.226Z,68.00
2023-01-22T12:30:24.142Z,72.00
2023-01-22T12:31:24.208Z,76.00
2023-01-22T12:32:24.130Z,76.00
2023-01-22T12:33:24.057Z,76.00
2023-01-22T12:34:24.114Z,68.00
2023-01-22T12:35:24.057Z,60.00
2023-01-22T12:36:24.047Z,64.00
2023-01-22T12:37:24.023Z,72.00
2023-01-22T12:38:24.048Z,80.00
2023-01-22T12:39:23.990Z,72.00
2023-01-22T12:40:23.994Z,68.00
2023-01-22T12:41:23.975Z,60.00
2023-01-22T12:42:23.964Z,68.00
2023-01-22T12:43:23.929Z,80.00
2023-01-22T12:44:23.967Z,80.00
2023-01-22T12:45:23.911Z,72.00
2023-01-22T12:46:23.969Z,64.00
2023-01-22T12:47:23.881Z,68.00
2023-01-22T12:48:23.891Z,72.00
2023-01-22T12:49:23.870Z,72.00
2023-01-22T12:50:23.856Z,72.00
2023-01-22T12:51:23.977Z,68.00
2023-01-22T12:52:23.857Z,64.00
2023-01-22T12:53:23.793Z,64.00
2023-01-22T12:54:23.811Z,68.00
2023-01-22T12:55:23.783Z,68.00
2023-01-22T12:56:23.808Z,60.00
2023-01-22T12:57:23.756Z,56.00
2023-01-22T12:58:23.785Z,56.00
2023-01-22T12:59:23.738Z,60.00
2023-01-22T13:00:23.827Z,64.00
2023-01-22T13:01:23.699Z,60.00
2023-01-22T13:02:23.738Z,60.00
2023-01-22T13:03:31.381Z,56.00
2023-01-22T13:04:23.701Z,56.00
2023-01-22T13:05:23.640Z,64.00
2023-01-22T13:06:23.673Z,64.00